createdAt,value
2018-06-24T00:00:34.632Z,95383.44
2018-06-24T00:03:04.701Z,95388.20
2018-06-24T00:05:34.416Z,95389.23
2018-06-24T00:08:04.180Z,95385.71
2018-06-24T00:10:33.913Z,95390.24
2018-06-24T00:13:03.836Z,95388.56
2018-06-24T00:15:33.591Z,95394.23
2018-06-24T00:18:03.438Z,95389.52
2018-06-24T00:20:33.275Z,95387.17
2018-06-24T00:23:03.114Z,95382.22
2018-06-24T00:25:33.004Z,95380.92
2018-06-24T00:28:02.885Z,95389.48
2018-06-24T00:30:32.626Z,95395.03
2018-06-24T00:33:02.405Z,95397.42
2018-06-24T00:35:32.120Z,95396.87
2018-06-24T00:38:01.855Z,95391.00
2018-06-24T00:40:31.771Z,95399.37
2018-06-24T00:43:01.663Z,95396.59
2018-06-24T00:45:31.554Z,95399.24
2018-06-24T00:48:01.420Z,95399.23
2018-06-24T00:50:31.170Z,95403.69
2018-06-24T00:53:00.943Z,95400.36
2018-06-24T00:55:30.827Z,95403.97
2018-06-24T00:58:00.636Z,95402.19
2018-06-24T01:00:30.394Z,95403.83
2018-06-24T01:03:00.152Z,95405.17
2018-06-24T01:05:30.134Z,95400.61
2018-06-24T01:07:59.827Z,95397.20
2018-06-24T01:11:32.453Z,95394.21
2018-06-24T01:14:03.691Z,95393.77
2018-06-24T01:16:32.612Z,95388.95
2018-06-24T01:19:02.308Z,95394.36
2018-06-24T01:21:32.123Z,95392.17
2018-06-24T01:24:02.010Z,95390.21
2018-06-24T01:26:31.773Z,95390.63
2018-06-24T01:29:01.528Z,95389.23
2018-06-24T01:31:31.404Z,95395.06
2018-06-24T01:34:01.197Z,95393.09
2018-06-24T01:36:30.998Z,95397.13
2018-06-24T01:39:00.702Z,95399.02
2018-06-24T01:41:30.411Z,95405.42
2018-06-24T01:44:00.179Z,95406.64
2018-06-24T01:46:29.819Z,95411.24
2018-06-24T01:48:59.585Z,95403.59
2018-06-24T01:51:29.246Z,95401.52
2018-06-24T01:53:59.045Z,95400.52
2018-06-24T01:56:28.983Z,95409.09
2018-06-24T01:58:58.825Z,95412.57
2018-06-24T02:01:28.563Z,95410.18
2018-06-24T02:03:58.426Z,95411.07
2018-06-24T02:06:28.222Z,95407.52
2018-06-24T02:08:58.077Z,95410.40
2018-06-24T02:11:27.931Z,95416.16
2018-06-24T02:13:57.717Z,95411.78
2018-06-24T02:16:28.025Z,95412.06
2018-06-24T02:18:58.186Z,95419.70
2018-06-24T02:21:27.954Z,95420.50
2018-06-24T02:23:57.728Z,95424.52
2018-06-24T02:26:27.539Z,95425.70
2018-06-24T02:28:57.332Z,95425.52
2018-06-24T02:31:27.119Z,95420.43
2018-06-24T02:33:56.993Z,95422.98
2018-06-24T02:36:26.702Z,95431.92
2018-06-24T02:38:56.557Z,95431.38
2018-06-24T02:41:26.341Z,95426.53
2018-06-24T02:43:56.109Z,95427.25
2018-06-24T02:46:25.875Z,95424.48
2018-06-24T02:48:55.523Z,95424.09
2018-06-24T02:51:25.454Z,95428.40
2018-06-24T02:53:56.482Z,95429.26
2018-06-24T02:56:26.333Z,95430.91
2018-06-24T02:58:56.198Z,95428.93
2018-06-24T03:01:25.983Z,95430.13
2018-06-24T03:03:55.652Z,95426.63
2018-06-24T03:06:25.336Z,95434.36
2018-06-24T03:08:55.163Z,95438.55
2018-06-24T03:11:25.048Z,95434.69
2018-06-24T03:13:54.894Z,95441.62
2018-06-24T03:16:24.591Z,95440.73
2018-06-24T03:18:54.764Z,95436.33
2018-06-24T03:21:24.632Z,95432.22
2018-06-24T03:23:54.349Z,95433.84
2018-06-24T03:26:24.274Z,95436.52
2018-06-24T03:28:54.036Z,95437.70
2018-06-24T03:31:23.945Z,95443.08
2018-06-24T03:33:53.795Z,95446.88
2018-06-24T03:36:23.572Z,95445.28
2018-06-24T03:38:53.475Z,95450.80
2018-06-24T03:41:23.294Z,95444.34
2018-06-24T03:43:53.047Z,95447.48
2018-06-24T03:46:22.823Z,95445.31
2018-06-24T03:48:52.627Z,95443.50
2018-06-24T03:51:22.444Z,95453.16
2018-06-24T03:53:52.259Z,95449.92
2018-06-24T03:56:21.958Z,95446.61
2018-06-24T03:58:51.701Z,95451.81
2018-06-24T04:01:21.513Z,95442.00
2018-06-24T04:03:51.241Z,95446.00
2018-06-24T04:06:20.985Z,95443.20
2018-06-24T04:08:50.719Z,95442.32
2018-06-24T04:11:20.497Z,95444.74
2018-06-24T04:13:50.163Z,95442.11
2018-06-24T04:16:20.029Z,95445.31
2018-06-24T04:18:49.861Z,95439.89
2018-06-24T04:21:19.920Z,95448.97
2018-06-24T04:23:49.753Z,95447.45
2018-06-24T04:26:19.510Z,95446.53
2018-06-24T04:28:49.245Z,95446.61
2018-06-24T04:31:19.030Z,95454.61
2018-06-24T04:33:48.820Z,95448.11
2018-06-24T04:36:18.621Z,95448.72
2018-06-24T04:38:48.361Z,95447.48
2018-06-24T04:41:18.204Z,95446.59
2018-06-24T04:43:47.957Z,95448.07
2018-06-24T04:46:17.722Z,95446.27
2018-06-24T04:48:47.414Z,95439.23
2018-06-24T04:51:17.206Z,95444.29
2018-06-24T04:53:47.047Z,95443.08
2018-06-24T04:56:16.733Z,95442.41
2018-06-24T04:58:46.516Z,95446.16
2018-06-24T05:01:16.260Z,95442.63
2018-06-24T05:03:46.083Z,95441.91
2018-06-24T05:06:15.861Z,95443.41
2018-06-24T05:08:45.693Z,95446.57
2018-06-24T05:11:15.563Z,95453.16
2018-06-24T05:13:45.284Z,95455.61
2018-06-24T05:16:15.262Z,95452.48
2018-06-24T05:18:45.063Z,95460.61
2018-06-24T05:21:14.830Z,95459.42
2018-06-24T05:23:44.527Z,95461.80
2018-06-24T05:26:14.323Z,95461.72
2018-06-24T05:28:44.127Z,95461.88
2018-06-24T05:31:13.963Z,95467.52
2018-06-24T05:33:43.773Z,95470.47
2018-06-24T05:36:13.531Z,95470.28
2018-06-24T05:38:43.278Z,95469.70
2018-06-24T05:41:13.081Z,95474.08
2018-06-24T05:43:42.893Z,95471.96
2018-06-24T05:46:12.740Z,95469.82
2018-06-24T05:48:42.500Z,95476.13
2018-06-24T05:51:12.329Z,95479.31
2018-06-24T05:53:42.085Z,95481.11
2018-06-24T05:56:11.827Z,95481.31
2018-06-24T05:58:41.719Z,95479.86
2018-06-24T06:01:11.568Z,95481.56
2018-06-24T06:03:41.652Z,95483.36
2018-06-24T06:06:11.310Z,95484.05
2018-06-24T06:08:41.178Z,95477.91
2018-06-24T06:11:10.982Z,95484.05
2018-06-24T06:13:40.734Z,95482.44
2018-06-24T06:16:10.504Z,95478.87
2018-06-24T06:18:40.229Z,95477.55
2018-06-24T06:21:10.046Z,95483.86
2018-06-24T06:23:39.889Z,95480.70
2018-06-24T06:26:10.176Z,95477.46
2018-06-24T06:28:40.034Z,95475.17
2018-06-24T06:31:09.899Z,95481.41
2018-06-24T06:33:39.689Z,95473.45
2018-06-24T06:36:09.593Z,95483.27
2018-06-24T06:38:39.565Z,95476.16
2018-06-24T06:41:09.379Z,95485.12
2018-06-24T06:43:39.291Z,95481.39
2018-06-24T06:46:13.352Z,95481.36
2018-06-24T06:48:43.287Z,95477.62
2018-06-24T06:51:13.048Z,95477.48
2018-06-24T06:53:43.840Z,95484.28
2018-06-24T06:56:13.718Z,95485.23
2018-06-24T06:58:43.523Z,95485.22
2018-06-24T07:01:13.383Z,95482.30
2018-06-24T07:03:44.287Z,95473.70
2018-06-24T07:06:14.214Z,95482.92
2018-06-24T07:08:44.169Z,95475.98
2018-06-24T07:11:14.071Z,95479.11
2018-06-24T07:13:44.064Z,95474.94
2018-06-24T07:16:13.965Z,95474.43
2018-06-24T07:18:43.833Z,95467.98
2018-06-24T07:21:13.690Z,95470.53
2018-06-24T07:23:43.545Z,95470.52
2018-06-24T07:26:13.637Z,95467.06
2018-06-24T07:28:43.520Z,95464.43
2018-06-24T07:31:13.294Z,95466.64
2018-06-24T07:33:43.238Z,95466.11
2018-06-24T07:36:12.957Z,95461.59
2018-06-24T07:38:42.703Z,95463.45
2018-06-24T07:41:12.537Z,95455.58
2018-06-24T07:43:42.394Z,95465.91
2018-06-24T07:46:12.218Z,95466.65
2018-06-24T07:48:41.957Z,95462.86
2018-06-24T07:51:11.659Z,95461.41
2018-06-24T07:53:41.531Z,95462.97
2018-06-24T07:56:11.309Z,95467.56
2018-06-24T07:58:41.087Z,95460.56
2018-06-24T08:01:10.804Z,95461.54
2018-06-24T08:03:40.541Z,95464.53
2018-06-24T08:06:10.419Z,95467.77
2018-06-24T08:08:40.087Z,95466.96
2018-06-24T08:11:09.930Z,95466.72
2018-06-24T08:13:39.683Z,95464.53
2018-06-24T08:16:09.549Z,95418.38
2018-06-24T08:18:39.273Z,95464.91
2018-06-24T08:21:09.079Z,95468.06
2018-06-24T08:23:38.818Z,95467.42
2018-06-24T08:26:08.525Z,95467.55
2018-06-24T08:28:38.687Z,95467.16
2018-06-24T08:31:08.873Z,95479.39
2018-06-24T08:33:38.639Z,95472.69
2018-06-24T08:36:08.200Z,95466.52
2018-06-24T08:38:37.944Z,95462.64
2018-06-24T08:41:07.699Z,95464.53
2018-06-24T08:43:37.562Z,95464.84
2018-06-24T08:46:07.376Z,95459.39
2018-06-24T08:48:37.217Z,95460.56
2018-06-24T08:51:07.207Z,95455.72
2018-06-24T08:53:37.057Z,95446.66
2018-06-24T08:56:06.655Z,95457.37
2018-06-24T08:58:36.577Z,95458.97
2018-06-24T09:01:06.407Z,95452.80
2018-06-24T09:03:36.116Z,95448.27
2018-06-24T09:06:05.948Z,95448.35
2018-06-24T09:08:35.821Z,95446.91
2018-06-24T09:11:05.590Z,95451.05
2018-06-24T09:13:35.266Z,95457.66
2018-06-24T09:16:05.091Z,95451.58
2018-06-24T09:18:34.924Z,95449.28
2018-06-24T09:21:04.762Z,95439.36
2018-06-24T09:23:34.511Z,95434.97
2018-06-24T09:26:04.314Z,95433.82
2018-06-24T09:28:34.161Z,95432.64
2018-06-24T09:31:04.538Z,95438.19
2018-06-24T09:33:34.693Z,95434.82
2018-06-24T09:36:04.522Z,95434.46
2018-06-24T09:38:34.434Z,95428.74
2018-06-24T09:41:04.390Z,95428.14
2018-06-24T09:43:34.194Z,95426.44
2018-06-24T09:46:04.434Z,95428.73
2018-06-24T09:48:34.245Z,95437.50
2018-06-24T09:51:04.076Z,95431.77
2018-06-24T09:53:33.952Z,95424.13
2018-06-24T09:56:03.693Z,95426.38
2018-06-24T09:58:33.396Z,95416.98
2018-06-24T10:01:03.009Z,95413.05
2018-06-24T10:03:32.730Z,95414.23
2018-06-24T10:06:02.453Z,95414.58
2018-06-24T10:08:32.306Z,95410.78
2018-06-24T10:11:02.084Z,95404.64
2018-06-24T10:13:31.964Z,95406.75
2018-06-24T10:16:01.762Z,95400.80
2018-06-24T10:18:31.665Z,95404.13
2018-06-24T10:21:01.361Z,95403.05
2018-06-24T10:23:31.191Z,95416.55
2018-06-24T10:26:00.990Z,95406.63
2018-06-24T10:28:30.771Z,95401.57
2018-06-24T10:31:00.551Z,95389.57
2018-06-24T10:33:30.628Z,95391.80
2018-06-24T10:36:00.467Z,95394.15
2018-06-24T10:38:30.435Z,95385.48
2018-06-24T10:41:00.086Z,95385.39
2018-06-24T10:43:29.887Z,95393.05
2018-06-24T10:45:59.634Z,95385.20
2018-06-24T10:48:29.472Z,95387.98
2018-06-24T10:50:59.299Z,95391.56
2018-06-24T10:53:29.107Z,95382.22
2018-06-24T10:55:58.850Z,95372.19
2018-06-24T10:58:28.671Z,95371.38
2018-06-24T11:00:58.421Z,95368.48
2018-06-24T11:03:28.175Z,95369.59
2018-06-24T11:05:57.995Z,95379.11
2018-06-24T11:08:27.817Z,95366.27
2018-06-24T11:10:57.624Z,95320.25
2018-06-24T11:13:27.280Z,95357.62
2018-06-24T11:15:57.093Z,95358.27
2018-06-24T11:18:26.879Z,95357.78
2018-06-24T11:20:56.716Z,95348.11
2018-06-24T11:23:26.497Z,95342.91
2018-06-24T11:25:56.241Z,95340.45
2018-06-24T11:28:26.140Z,95341.42
2018-06-24T11:30:56.042Z,95341.02
2018-06-24T11:33:25.772Z,95341.22
2018-06-24T11:35:56.010Z,95346.48
2018-06-24T11:38:25.788Z,95340.91
2018-06-24T11:40:55.557Z,95336.78
2018-06-24T11:43:25.292Z,95338.22
2018-06-24T11:45:55.046Z,95327.00
2018-06-24T11:48:24.894Z,95331.52
2018-06-24T11:50:54.806Z,95325.16
2018-06-24T11:53:24.657Z,95316.08
2018-06-24T11:55:54.867Z,95313.19
2018-06-24T11:58:24.549Z,95333.42
2018-06-24T12:00:54.172Z,95310.34
2018-06-24T12:03:24.015Z,95313.61
2018-06-24T12:05:53.970Z,95314.98
2018-06-24T12:08:23.928Z,95308.89
2018-06-24T12:10:53.680Z,95303.24
2018-06-24T12:13:23.352Z,95309.52
2018-06-24T12:15:53.185Z,95305.92
2018-06-24T12:18:22.943Z,95307.26
2018-06-24T12:20:52.678Z,95300.26
2018-06-24T12:23:22.589Z,95292.23
2018-06-24T12:25:52.410Z,95296.17
2018-06-24T12:28:22.226Z,95301.47
2018-06-24T12:30:52.002Z,95308.21
2018-06-24T12:33:21.688Z,95300.41
2018-06-24T12:35:51.518Z,95297.09
2018-06-24T12:38:21.677Z,95300.39
2018-06-24T12:40:51.414Z,95080.06
2018-06-24T12:43:21.196Z,95287.72
2018-06-24T12:45:50.912Z,95287.98
2018-06-24T12:48:20.762Z,95292.23
2018-06-24T12:50:50.594Z,95288.75
2018-06-24T12:53:20.454Z,95294.49
2018-06-24T12:55:50.225Z,95293.52
2018-06-24T12:58:20.076Z,95278.52
2018-06-24T13:00:50.468Z,95279.59
2018-06-24T13:03:19.781Z,95284.43
2018-06-24T13:05:49.997Z,95273.38
2018-06-24T13:08:19.838Z,95272.62
2018-06-24T13:10:49.622Z,95276.13
2018-06-24T13:13:19.361Z,95272.27
2018-06-24T13:15:49.148Z,95274.83
2018-06-24T13:18:18.912Z,95274.16
2018-06-24T13:20:48.633Z,95273.72
2018-06-24T13:23:18.486Z,95275.75
2018-06-24T13:25:48.016Z,95274.09
2018-06-24T13:28:17.846Z,95278.84
2018-06-24T13:30:47.639Z,95270.09
2018-06-24T13:33:17.283Z,95275.30
2018-06-24T13:35:47.049Z,95267.63
2018-06-24T13:38:17.104Z,95274.11
2018-06-24T13:40:47.219Z,95270.59
2018-06-24T13:43:17.063Z,95262.68
2018-06-24T13:45:46.903Z,95268.93
2018-06-24T13:48:16.716Z,95262.77
2018-06-24T13:50:46.614Z,95258.64
2018-06-24T13:53:16.403Z,95261.96
2018-06-24T13:55:46.240Z,95261.82
2018-06-24T13:58:16.080Z,95250.97
2018-06-24T14:00:45.871Z,95254.64
2018-06-24T14:03:15.818Z,95256.53
2018-06-24T14:05:45.749Z,95261.31
2018-06-24T14:08:15.559Z,95255.95
2018-06-24T14:10:45.298Z,95260.43
2018-06-24T14:13:15.103Z,95246.61
2018-06-24T14:15:44.945Z,95240.62
2018-06-24T14:18:14.724Z,95246.47
2018-06-24T14:20:44.473Z,95255.06
2018-06-24T14:23:14.359Z,95245.40
2018-06-24T14:25:44.169Z,95234.78
2018-06-24T14:28:13.955Z,95236.64
2018-06-24T14:30:43.747Z,95229.53
2018-06-24T14:33:13.575Z,95222.47
2018-06-24T14:35:43.459Z,95234.29
2018-06-24T14:38:13.204Z,95231.87
2018-06-24T14:40:42.898Z,95222.77
2018-06-24T14:43:13.119Z,95224.86
2018-06-24T14:45:42.982Z,95234.39
2018-06-24T14:48:12.876Z,95234.19
2018-06-24T14:50:42.712Z,95234.27
2018-06-24T14:53:12.602Z,95228.33
2018-06-24T14:55:42.668Z,95225.94
2018-06-24T14:58:12.528Z,95233.78
2018-06-24T15:00:42.362Z,95224.77
2018-06-24T15:03:12.042Z,95220.09
2018-06-24T15:05:41.821Z,95224.73
2018-06-24T15:08:11.655Z,95212.19
2018-06-24T15:10:41.388Z,95221.42
2018-06-24T15:13:11.147Z,95217.42
2018-06-24T15:15:40.875Z,95216.84
2018-06-24T15:18:10.674Z,95221.73
2018-06-24T15:20:40.427Z,95215.58
2018-06-24T15:23:10.283Z,95215.11
2018-06-24T15:25:40.209Z,95216.45
2018-06-24T15:28:09.923Z,95207.03
2018-06-24T15:30:39.712Z,95210.91
2018-06-24T15:33:09.482Z,95215.53
2018-06-24T15:35:39.274Z,95212.48
2018-06-24T15:38:09.010Z,95221.03
2018-06-24T15:40:38.855Z,95219.92
2018-06-24T15:43:08.626Z,95217.95
2018-06-24T15:45:38.599Z,95219.97
2018-06-24T15:48:08.383Z,95222.52
2018-06-24T15:50:38.189Z,95224.42
2018-06-24T15:53:08.113Z,95228.78
2018-06-24T15:55:37.933Z,95228.69
2018-06-24T15:58:07.698Z,95223.38
2018-06-24T16:00:37.430Z,95233.03
2018-06-24T16:03:07.611Z,95222.48
2018-06-24T16:05:37.435Z,95231.79
2018-06-24T16:10:36.244Z,95235.22
2018-06-24T16:13:06.526Z,95243.59
2018-06-24T16:15:36.161Z,95246.75
2018-06-24T16:18:05.885Z,95246.77
2018-06-24T16:20:35.897Z,95248.28
2018-06-24T16:23:05.600Z,95243.75
2018-06-24T16:25:35.420Z,95247.80
2018-06-24T16:28:05.399Z,95247.42
2018-06-24T16:30:35.233Z,95245.53
2018-06-24T16:33:05.010Z,95250.08
2018-06-24T16:35:34.918Z,95251.63
2018-06-24T16:38:04.807Z,95247.16
2018-06-24T16:40:34.603Z,95252.42
2018-06-24T16:43:04.420Z,95247.14
2018-06-24T16:45:34.259Z,95249.42
2018-06-24T16:48:04.452Z,95253.41
2018-06-24T16:50:34.300Z,95254.91
2018-06-24T16:53:04.008Z,95253.49
2018-06-24T16:55:33.870Z,95260.48
2018-06-24T16:58:03.686Z,95262.75
2018-06-24T17:00:33.466Z,95263.64
2018-06-24T17:03:03.363Z,95269.64
2018-06-24T17:05:33.221Z,95266.91
2018-06-24T17:08:03.062Z,95273.26
2018-06-24T17:10:32.996Z,95280.41
2018-06-24T17:13:02.911Z,95282.11
2018-06-24T17:15:32.657Z,95283.78
2018-06-24T17:18:02.453Z,95279.70
2018-06-24T17:20:32.301Z,95288.03
2018-06-24T17:23:02.195Z,95289.62
2018-06-24T17:25:32.061Z,95289.06
2018-06-24T17:28:01.748Z,95291.66
2018-06-24T17:30:31.572Z,95301.78
2018-06-24T17:33:01.311Z,95307.52
2018-06-24T17:35:31.114Z,95307.08
2018-06-24T17:38:00.960Z,95306.84
2018-06-24T17:40:30.798Z,95311.02
2018-06-24T17:43:01.856Z,95313.92
2018-06-24T17:45:31.867Z,95315.92
2018-06-24T17:48:01.660Z,95326.05
2018-06-24T17:50:31.819Z,95332.25
2018-06-24T17:53:02.816Z,95327.85
2018-06-24T17:55:34.463Z,95330.64
2018-06-24T17:58:04.356Z,95330.11
2018-06-24T18:00:34.390Z,95325.39
2018-06-24T18:03:04.979Z,95331.92
2018-06-24T18:05:34.906Z,95329.55
2018-06-24T18:08:04.943Z,95331.67
2018-06-24T18:10:35.118Z,95335.73
2018-06-24T18:13:06.904Z,95332.56
2018-06-24T18:15:36.863Z,95323.45
2018-06-24T18:18:07.052Z,95326.73
2018-06-24T18:20:36.907Z,95319.78
2018-06-24T18:23:07.097Z,95328.64
2018-06-24T18:25:36.938Z,95329.53
2018-06-24T18:28:07.535Z,95345.70
2018-06-24T18:30:37.335Z,95347.33
2018-06-24T18:33:07.905Z,95349.55
2018-06-24T18:35:46.231Z,95349.63
2018-06-24T18:38:16.151Z,95348.76
2018-06-24T18:40:47.111Z,95361.46
2018-06-24T18:43:18.439Z,95366.04
2018-06-24T18:45:48.407Z,95371.55
2018-06-24T18:48:18.264Z,95374.22
2018-06-24T18:50:48.418Z,95368.74
2018-06-24T18:53:18.337Z,95375.26
2018-06-24T18:55:48.236Z,95378.99
2018-06-24T18:58:18.056Z,95384.73
2018-06-24T19:00:47.969Z,95390.23
2018-06-24T19:03:18.640Z,95390.34
2018-06-24T19:05:48.567Z,95393.48
2018-06-24T19:08:18.300Z,95394.38
2018-06-24T19:10:48.338Z,95395.85
2018-06-24T19:13:18.285Z,95398.16
2018-06-24T19:15:48.179Z,95394.56
2018-06-24T19:18:17.994Z,95389.76
2018-06-24T19:20:47.922Z,95401.34
2018-06-24T19:23:18.091Z,95398.89
2018-06-24T19:25:48.039Z,95399.33
2018-06-24T19:28:17.939Z,95408.50
2018-06-24T19:30:47.870Z,95412.69
2018-06-24T19:33:18.462Z,95415.83
2018-06-24T19:35:48.503Z,95417.23
2018-06-24T19:38:18.304Z,95419.87
2018-06-24T19:40:48.119Z,95414.86
2018-06-24T19:43:18.039Z,95414.63
2018-06-24T19:45:47.863Z,95424.02
2018-06-24T19:48:17.729Z,95410.17
2018-06-24T19:50:47.474Z,95405.11
2018-06-24T19:53:17.530Z,95411.66
2018-06-24T19:55:47.453Z,95411.03
2018-06-24T19:58:17.263Z,95406.27
2018-06-24T20:00:47.093Z,95410.00
2018-06-24T20:03:16.811Z,95414.94
2018-06-24T20:05:46.740Z,95414.41
2018-06-24T20:08:16.747Z,95415.62
2018-06-24T20:10:46.689Z,95419.53
2018-06-24T20:13:16.560Z,95423.81
2018-06-24T20:15:46.437Z,95427.75
2018-06-24T20:18:16.299Z,95420.47
2018-06-24T20:20:46.235Z,95421.73
2018-06-24T20:23:16.126Z,95419.42
2018-06-24T20:25:46.998Z,95418.63
2018-06-24T20:28:16.896Z,95418.88
2018-06-24T20:30:46.853Z,95418.89
2018-06-24T20:33:16.485Z,95424.72
2018-06-24T20:35:46.458Z,95424.14
2018-06-24T20:38:16.203Z,95417.43
2018-06-24T20:40:46.095Z,95418.97
2018-06-24T20:43:16.023Z,95420.83
2018-06-24T20:45:45.907Z,95424.12
2018-06-24T20:48:15.771Z,95425.47
2018-06-24T20:50:45.542Z,95423.57
2018-06-24T20:53:15.375Z,95419.97
2018-06-24T20:55:45.967Z,95420.83
2018-06-24T20:58:15.962Z,95424.23
2018-06-24T21:00:45.679Z,95414.77
2018-06-24T21:03:15.492Z,95418.19
2018-06-24T21:05:45.249Z,95427.19
2018-06-24T21:08:15.157Z,95419.47
2018-06-24T21:10:44.982Z,95416.41
2018-06-24T21:13:14.965Z,95415.83
2018-06-24T21:15:44.836Z,95418.06
2018-06-24T21:18:14.613Z,95414.48
2018-06-24T21:20:44.387Z,95414.92
2018-06-24T21:23:14.470Z,95418.43
2018-06-24T21:25:44.175Z,95422.14
2018-06-24T21:28:14.113Z,95417.43
2018-06-24T21:30:43.976Z,95417.77
2018-06-24T21:33:14.122Z,95418.52
2018-06-24T21:35:43.990Z,95420.48
2018-06-24T21:38:13.637Z,95413.06
2018-06-24T21:40:43.508Z,95415.69
2018-06-24T21:43:13.351Z,95413.58
2018-06-24T21:45:43.182Z,95422.27
2018-06-24T21:48:13.124Z,95425.67
2018-06-24T21:50:43.112Z,95420.25
2018-06-24T21:53:12.766Z,95424.88
2018-06-24T21:55:42.625Z,95421.63
2018-06-24T21:58:12.963Z,95419.73
2018-06-24T22:00:42.779Z,95410.20
2018-06-24T22:03:12.724Z,95411.20
2018-06-24T22:05:42.652Z,95407.19
2018-06-24T22:08:12.433Z,95411.09
2018-06-24T22:10:42.353Z,95407.74
2018-06-24T22:13:12.290Z,95407.64
2018-06-24T22:15:42.081Z,95398.58
2018-06-24T22:18:11.968Z,95398.19
2018-06-24T22:20:41.878Z,95396.38
2018-06-24T22:23:11.704Z,95396.24
2018-06-24T22:25:41.563Z,95393.34
2018-06-24T22:28:11.556Z,95397.77
2018-06-24T22:30:41.315Z,95349.72
2018-06-24T22:33:11.162Z,95394.15
2018-06-24T22:35:40.925Z,95398.25
2018-06-24T22:38:10.828Z,95398.42
2018-06-24T22:40:40.688Z,95394.66
2018-06-24T22:43:10.508Z,95397.38
2018-06-24T22:45:40.323Z,95392.71
2018-06-24T22:48:10.039Z,95390.17
2018-06-24T22:50:39.988Z,95391.58
2018-06-24T22:53:10.088Z,95391.68
2018-06-24T22:55:39.986Z,95383.36
2018-06-24T22:58:09.855Z,95382.97
2018-06-24T23:00:40.133Z,95386.47
2018-06-24T23:03:10.917Z,95382.25
2018-06-24T23:05:40.775Z,95382.75
2018-06-24T23:08:10.704Z,95382.30
2018-06-24T23:10:40.614Z,95385.34
2018-06-24T23:13:11.062Z,95383.59
2018-06-24T23:15:40.863Z,95381.70
2018-06-24T23:18:10.724Z,95388.94
2018-06-24T23:20:40.517Z,95385.58
2018-06-24T23:23:10.488Z,95384.39
2018-06-24T23:25:40.379Z,95388.75
2018-06-24T23:28:10.189Z,95388.66
2018-06-24T23:30:40.102Z,95388.25
2018-06-24T23:33:10.139Z,95388.47
2018-06-24T23:35:40.038Z,95383.13
2018-06-24T23:38:09.870Z,95380.73
2018-06-24T23:40:39.842Z,95379.28
2018-06-24T23:43:09.678Z,95388.16
2018-06-24T23:45:39.562Z,95389.41
2018-06-24T23:48:09.357Z,95380.78
2018-06-24T23:50:39.142Z,95374.84
2018-06-24T23:53:09.067Z,95098.86
2018-06-24T23:55:38.982Z,95372.83
2018-06-24T23:58:08.864Z,95380.59
